createdAt,value
2022-09-21T00:01:04.267Z,6.03
2022-09-21T00:03:41.406Z,6.55
2022-09-21T00:06:18.536Z,5.88
2022-09-21T00:08:52.112Z,5.47
2022-09-21T00:11:28.408Z,12.88
2022-09-21T00:14:08.724Z,6.72
2022-09-21T00:16:44.258Z,6.85
2022-09-21T00:19:17.008Z,6.18
2022-09-21T00:21:49.138Z,7.22
2022-09-21T00:24:25.075Z,7.75
2022-09-21T00:26:57.006Z,9.55
2022-09-21T00:29:28.905Z,7.90
2022-09-21T00:32:01.049Z,8.50
2022-09-21T00:34:32.979Z,8.15
2022-09-21T00:37:04.960Z,7.50
2022-09-21T00:39:36.854Z,7.65
2022-09-21T00:42:21.310Z,7.50
2022-09-21T00:44:57.195Z,6.35
2022-09-21T00:47:44.673Z,6.18
2022-09-21T00:50:21.224Z,7.03
2022-09-21T00:52:57.715Z,5.88
2022-09-21T00:55:37.343Z,6.68
2022-09-21T00:58:21.097Z,8.10
2022-09-21T01:01:00.552Z,7.45
2022-09-21T01:03:32.835Z,6.43
2022-09-21T01:06:04.879Z,5.97
2022-09-21T01:08:38.117Z,6.53
2022-09-21T01:11:38.033Z,6.85
2022-09-21T01:14:29.645Z,9.23
2022-09-21T01:17:40.848Z,6.40
2022-09-21T01:20:43.750Z,6.30
2022-09-21T01:24:09.606Z,10.27
2022-09-21T01:27:16.254Z,8.25
2022-09-21T01:30:14.674Z,6.22
2022-09-21T01:33:13.821Z,7.50
2022-09-21T01:36:01.004Z,7.25
2022-09-21T01:38:45.788Z,6.85
2022-09-21T01:41:25.961Z,9.20
2022-09-21T01:44:21.973Z,6.60
2022-09-21T01:46:58.586Z,6.80
2022-09-21T01:49:42.011Z,6.90
2022-09-21T01:52:20.112Z,7.45
2022-09-21T01:55:07.498Z,7.68
2022-09-21T01:58:05.488Z,7.35
2022-09-21T02:00:46.473Z,6.82
2022-09-21T02:03:32.897Z,6.57
2022-09-21T02:06:13.089Z,6.68
2022-09-21T02:08:46.919Z,7.50
2022-09-21T02:11:19.796Z,7.50
2022-09-21T02:13:54.745Z,7.13
2022-09-21T02:16:58.490Z,7.20
2022-09-21T02:20:03.049Z,6.88
2022-09-21T02:23:03.622Z,7.15
2022-09-21T02:26:09.392Z,6.60
2022-09-21T02:28:55.929Z,7.35
2022-09-21T02:31:55.198Z,6.38
2022-09-21T02:34:46.456Z,6.85
2022-09-21T02:37:49.716Z,7.20
2022-09-21T02:40:38.587Z,5.93
2022-09-21T02:43:37.364Z,6.72
2022-09-21T02:46:42.959Z,6.72
2022-09-21T02:49:26.281Z,7.20
2022-09-21T02:52:10.063Z,7.00
2022-09-21T02:54:50.717Z,5.78
2022-09-21T02:57:25.715Z,5.82
2022-09-21T02:59:58.046Z,5.65
2022-09-21T03:02:40.730Z,6.50
2022-09-21T03:05:15.311Z,7.78
2022-09-21T03:07:47.204Z,6.15
2022-09-21T03:10:20.177Z,7.38
2022-09-21T03:12:52.048Z,7.25
2022-09-21T03:15:45.494Z,6.18
2022-09-21T03:18:17.829Z,7.10
2022-09-21T03:20:50.094Z,7.72
2022-09-21T03:23:22.132Z,6.90
2022-09-21T03:25:57.299Z,7.20
2022-09-21T03:28:29.237Z,9.95
2022-09-21T03:31:01.630Z,8.55
2022-09-21T03:33:33.761Z,6.90
2022-09-21T03:36:05.919Z,9.30
2022-09-21T03:38:39.285Z,6.80
2022-09-21T03:41:11.173Z,6.72
2022-09-21T03:43:44.793Z,8.75
2022-09-21T03:46:17.192Z,7.45
2022-09-21T03:48:49.222Z,6.85
2022-09-21T03:51:21.053Z,8.60
2022-09-21T03:53:53.139Z,6.75
2022-09-21T03:56:25.138Z,8.20
2022-09-21T03:58:57.114Z,7.65
2022-09-21T04:01:30.377Z,6.38
2022-09-21T04:04:02.845Z,7.07
2022-09-21T04:06:35.014Z,7.38
2022-09-21T04:09:07.060Z,8.20
2022-09-21T04:11:39.292Z,7.40
2022-09-21T04:14:12.511Z,8.32
2022-09-21T04:16:44.908Z,7.45
2022-09-21T04:19:17.638Z,8.50
2022-09-21T04:21:51.387Z,8.68
2022-09-21T04:24:23.675Z,8.68
2022-09-21T04:26:55.596Z,7.53
2022-09-21T04:29:27.509Z,8.00
2022-09-21T04:31:59.647Z,7.22
2022-09-21T04:34:31.786Z,9.15
2022-09-21T04:37:03.882Z,7.85
2022-09-21T04:39:36.855Z,8.40
2022-09-21T04:42:09.726Z,9.48
2022-09-21T04:44:41.678Z,8.43
2022-09-21T04:47:13.635Z,9.90
2022-09-21T04:49:45.814Z,8.10
2022-09-21T04:52:19.204Z,7.88
2022-09-21T04:54:51.534Z,9.18
2022-09-21T04:57:23.945Z,9.95
2022-09-21T04:59:55.874Z,8.95
2022-09-21T05:02:27.811Z,8.65
2022-09-21T05:04:59.793Z,8.25
2022-09-21T05:07:31.758Z,8.23
2022-09-21T05:10:04.053Z,8.93
2022-09-21T05:12:41.866Z,8.07
2022-09-21T05:15:14.687Z,8.32
2022-09-21T05:17:46.795Z,8.32
2022-09-21T05:20:18.800Z,8.52
2022-09-21T05:22:50.821Z,11.07
2022-09-21T05:25:22.775Z,10.77
2022-09-21T05:27:54.701Z,9.98
2022-09-21T05:30:26.969Z,9.30
2022-09-21T05:33:03.805Z,13.52
2022-09-21T05:35:54.248Z,9.10
2022-09-21T05:38:46.216Z,8.23
2022-09-21T05:41:18.954Z,11.65
2022-09-21T05:43:51.663Z,9.02
2022-09-21T05:46:38.392Z,8.90
2022-09-21T05:49:48.631Z,8.68
2022-09-21T05:52:47.297Z,9.85
2022-09-21T05:55:56.571Z,8.50
2022-09-21T05:58:51.652Z,9.27
2022-09-21T06:02:07.481Z,9.75
2022-09-21T06:04:54.222Z,10.45
2022-09-21T06:07:28.078Z,9.57
2022-09-21T06:10:00.065Z,9.73
2022-09-21T06:12:32.114Z,11.27
2022-09-21T06:15:06.133Z,10.02
2022-09-21T06:17:42.623Z,10.27
2022-09-21T06:20:14.574Z,11.63
2022-09-21T06:22:46.599Z,10.48
2022-09-21T06:25:20.419Z,12.30
2022-09-21T06:27:52.776Z,12.40
2022-09-21T06:30:25.772Z,13.40
2022-09-21T06:33:06.044Z,9.93
2022-09-21T06:35:38.313Z,9.60
2022-09-21T06:38:11.135Z,9.77
2022-09-21T06:40:43.107Z,9.32
2022-09-21T06:43:15.206Z,7.72
2022-09-21T06:45:55.368Z,8.45
2022-09-21T06:48:32.307Z,7.75
2022-09-21T06:51:06.269Z,6.97
2022-09-21T06:53:38.362Z,7.63
2022-09-21T06:56:10.553Z,8.68
2022-09-21T06:58:42.991Z,8.30
2022-09-21T07:01:16.218Z,7.80
2022-09-21T07:03:51.261Z,9.83
2022-09-21T07:06:23.379Z,7.97
2022-09-21T07:11:47.677Z,8.97
2022-09-21T07:14:23.410Z,7.00
2022-09-21T07:16:55.851Z,8.50
2022-09-21T07:19:28.725Z,6.73
2022-09-21T07:22:00.734Z,6.60
2022-09-21T07:24:33.400Z,9.60
2022-09-21T07:27:05.343Z,7.93
2022-09-21T07:29:37.252Z,6.80
2022-09-21T07:32:10.041Z,7.67
2022-09-21T07:34:43.872Z,10.20
2022-09-21T07:37:16.373Z,8.13
2022-09-21T07:39:48.292Z,6.97
2022-09-21T07:42:22.751Z,8.03
2022-09-21T07:45:03.841Z,7.50
2022-09-21T07:47:36.864Z,9.57
2022-09-21T07:50:09.690Z,7.43
2022-09-21T07:52:42.928Z,6.57
2022-09-21T07:55:15.478Z,7.53
2022-09-21T07:58:08.818Z,6.77
2022-09-21T08:01:06.674Z,6.80
2022-09-21T08:03:38.930Z,7.37
2022-09-21T08:06:11.259Z,6.63
2022-09-21T08:08:43.661Z,6.50
2022-09-21T08:11:22.147Z,5.63
2022-09-21T08:13:58.258Z,4.87
2022-09-21T08:16:33.836Z,9.33
2022-09-21T08:19:08.436Z,4.43
2022-09-21T08:21:41.062Z,6.07
2022-09-21T08:24:13.308Z,5.20
2022-09-21T08:26:46.289Z,5.10
2022-09-21T08:29:19.252Z,4.40
2022-09-21T08:31:52.385Z,4.50
2022-09-21T08:34:24.485Z,4.57
2022-09-21T08:36:57.177Z,5.77
2022-09-21T08:39:29.094Z,3.80
2022-09-21T08:42:32.160Z,5.33
2022-09-21T08:45:16.901Z,5.57
2022-09-21T08:47:53.879Z,4.90
2022-09-21T08:50:55.942Z,3.03
2022-09-21T08:53:43.870Z,3.80
2022-09-21T08:56:17.339Z,5.75
2022-09-21T08:58:51.175Z,3.70
2022-09-21T09:01:50.565Z,3.47
2022-09-21T09:05:08.090Z,7.70
2022-09-21T09:08:19.375Z,3.92
2022-09-21T09:11:53.882Z,4.57
2022-09-21T09:15:06.972Z,11.43
2022-09-21T09:17:58.739Z,4.88
2022-09-21T09:20:42.280Z,3.13
2022-09-21T09:23:27.304Z,3.50
2022-09-21T09:26:12.063Z,3.50
2022-09-21T09:29:19.890Z,2.78
2022-09-21T09:32:15.118Z,2.92
2022-09-21T09:34:59.781Z,2.67
2022-09-21T09:37:48.678Z,3.13
2022-09-21T09:40:45.673Z,2.85
2022-09-21T09:43:49.381Z,5.57
2022-09-21T09:47:12.073Z,2.75
2022-09-21T09:50:11.048Z,2.95
2022-09-21T09:52:54.930Z,2.80
2022-09-21T09:55:43.665Z,2.78
2022-09-21T09:58:29.007Z,2.83
2022-09-21T10:01:42.682Z,3.65
2022-09-21T10:04:17.857Z,3.08
2022-09-21T10:06:49.924Z,4.93
2022-09-21T10:09:26.622Z,3.45
2022-09-21T10:12:16.999Z,3.05
2022-09-21T10:15:00.796Z,2.60
2022-09-21T10:17:32.881Z,2.40
2022-09-21T10:20:08.093Z,6.00
2022-09-21T10:22:54.398Z,3.10
2022-09-21T10:25:27.498Z,3.47
2022-09-21T10:28:02.644Z,2.95
2022-09-21T10:31:17.696Z,2.90
2022-09-21T10:34:14.916Z,3.75
2022-09-21T10:36:52.450Z,3.10
2022-09-21T10:39:34.403Z,3.37
2022-09-21T10:42:19.624Z,3.00
2022-09-21T10:45:16.378Z,2.70
2022-09-21T10:48:06.932Z,3.80
2022-09-21T10:50:43.490Z,4.70
2022-09-21T10:53:28.488Z,2.73
2022-09-21T10:56:58.366Z,2.17
2022-09-21T10:59:37.302Z,3.63
2022-09-21T11:02:24.508Z,2.65
2022-09-21T11:05:12.078Z,2.27
2022-09-21T11:07:59.340Z,3.97
2022-09-21T11:11:06.997Z,5.27
2022-09-21T11:14:12.775Z,2.00
2022-09-21T11:17:32.387Z,5.10
2022-09-21T11:20:41.607Z,3.40
2022-09-21T11:24:02.428Z,2.33
2022-09-21T11:27:02.785Z,3.30
2022-09-21T11:29:58.659Z,2.10
2022-09-21T11:33:12.032Z,2.27
2022-09-21T11:36:23.067Z,1.53
2022-09-21T11:39:32.702Z,1.77
2022-09-21T11:42:45.876Z,1.60
2022-09-21T11:46:01.407Z,1.33
2022-09-21T11:49:11.297Z,1.93
2022-09-21T11:52:41.355Z,1.53
2022-09-21T11:55:36.376Z,1.33
2022-09-21T11:58:39.647Z,4.40
2022-09-21T12:01:55.116Z,1.30
2022-09-21T12:04:55.127Z,1.60
2022-09-21T12:08:08.133Z,1.20
2022-09-21T12:11:21.123Z,1.70
2022-09-21T12:14:25.209Z,1.40
2022-09-21T12:17:24.616Z,2.03
2022-09-21T12:20:31.584Z,1.97
2022-09-21T12:23:45.449Z,1.30
2022-09-21T12:26:27.899Z,1.20
2022-09-21T12:29:25.563Z,1.10
2022-09-21T12:32:47.483Z,1.93
2022-09-21T12:35:46.735Z,1.37
2022-09-21T12:38:49.421Z,1.30
2022-09-21T12:41:59.753Z,1.83
2022-09-21T12:45:06.900Z,1.63
2022-09-21T12:48:04.472Z,1.30
2022-09-21T12:51:11.744Z,1.37
2022-09-21T12:53:53.563Z,2.30
2022-09-21T12:56:53.383Z,1.47
2022-09-21T12:59:55.074Z,2.43
2022-09-21T13:02:51.665Z,3.37
2022-09-21T13:06:06.586Z,3.30
2022-09-21T13:09:03.349Z,2.17
2022-09-21T13:11:56.806Z,2.07
2022-09-21T13:14:51.621Z,2.63
2022-09-21T13:17:33.633Z,2.43
2022-09-21T13:20:21.542Z,6.07
2022-09-21T13:23:02.349Z,4.40
2022-09-21T13:25:37.768Z,2.83
2022-09-21T13:28:13.569Z,1.73
2022-09-21T13:31:37.107Z,1.60
2022-09-21T13:34:45.364Z,1.77
2022-09-21T13:37:19.086Z,1.87
2022-09-21T13:40:03.177Z,1.93
2022-09-21T13:43:15.992Z,1.50
2022-09-21T13:45:55.946Z,2.50
2022-09-21T13:48:29.767Z,3.00
2022-09-21T13:51:08.602Z,1.40
2022-09-21T13:53:46.124Z,1.40
2022-09-21T13:56:25.490Z,1.40
2022-09-21T13:58:58.419Z,1.30
2022-09-21T14:01:50.200Z,1.50
2022-09-21T14:04:36.841Z,1.73
2022-09-21T14:07:10.224Z,2.00
2022-09-21T14:09:57.771Z,1.43
2022-09-21T14:12:38.321Z,1.40
2022-09-21T14:15:19.462Z,1.40
2022-09-21T14:18:21.024Z,1.53
2022-09-21T14:21:09.538Z,2.23
2022-09-21T14:24:06.328Z,3.30
2022-09-21T14:27:25.352Z,1.40
2022-09-21T14:30:20.172Z,1.70
2022-09-21T14:33:26.190Z,1.20
2022-09-21T14:36:09.214Z,2.00
2022-09-21T14:39:00.407Z,3.43
2022-09-21T14:41:43.505Z,1.37
2022-09-21T14:44:30.200Z,1.30
2022-09-21T14:47:28.782Z,1.50
2022-09-21T14:50:26.232Z,1.20
2022-09-21T14:54:03.722Z,1.27
2022-09-21T14:57:23.428Z,1.30
2022-09-21T15:00:26.468Z,2.50
2022-09-21T15:03:31.770Z,1.60
2022-09-21T15:07:21.644Z,1.50
2022-09-21T15:10:56.430Z,1.30
2022-09-21T15:14:11.239Z,1.63
2022-09-21T15:16:51.923Z,3.53
2022-09-21T15:19:27.328Z,1.83
2022-09-21T15:22:21.749Z,1.67
2022-09-21T15:24:56.560Z,3.30
2022-09-21T15:27:48.509Z,1.77
2022-09-21T15:30:24.523Z,1.30
2022-09-21T15:33:01.571Z,1.40
2022-09-21T15:35:34.361Z,1.40
2022-09-21T15:38:28.134Z,2.23
2022-09-21T15:41:05.667Z,1.50
2022-09-21T15:44:12.232Z,2.23
2022-09-21T15:46:53.497Z,2.57
2022-09-21T15:49:34.800Z,1.50
2022-09-21T15:52:22.726Z,2.23
2022-09-21T15:55:22.745Z,1.30
2022-09-21T15:57:59.134Z,1.97
2022-09-21T16:00:35.134Z,1.90
2022-09-21T16:03:19.354Z,1.53
2022-09-21T16:05:55.915Z,1.40
2022-09-21T16:08:35.164Z,1.27
2022-09-21T16:11:16.889Z,4.43
2022-09-21T16:14:32.380Z,1.57
2022-09-21T16:17:29.037Z,4.17
2022-09-21T16:20:17.358Z,1.50
2022-09-21T16:23:03.228Z,1.77
2022-09-21T16:25:43.257Z,1.50
2022-09-21T16:29:06.943Z,1.80
2022-09-21T16:31:52.403Z,2.07
2022-09-21T16:34:53.081Z,1.60
2022-09-21T16:37:45.202Z,1.85
2022-09-21T16:40:19.220Z,1.60
2022-09-21T16:42:51.992Z,1.30
2022-09-21T16:45:31.823Z,1.60
2022-09-21T16:48:07.936Z,1.63
2022-09-21T16:50:43.460Z,1.60
2022-09-21T16:53:16.137Z,4.45
2022-09-21T16:55:50.124Z,1.70
2022-09-21T16:58:26.106Z,1.50
2022-09-21T17:01:00.892Z,1.40
2022-09-21T17:03:34.540Z,1.60
2022-09-21T17:06:17.519Z,1.95
2022-09-21T17:08:52.114Z,1.85
2022-09-21T17:11:24.363Z,1.50
2022-09-21T17:14:01.423Z,2.00
2022-09-21T17:16:34.763Z,1.70
2022-09-21T17:19:08.913Z,2.88
2022-09-21T17:21:41.517Z,1.90
2022-09-21T17:24:32.828Z,2.30
2022-09-21T17:27:09.557Z,1.55
2022-09-21T17:29:48.279Z,2.83
2022-09-21T17:32:22.633Z,1.92
2022-09-21T17:35:12.402Z,2.20
2022-09-21T17:38:04.530Z,2.80
2022-09-21T17:40:37.699Z,3.10
2022-09-21T17:43:13.473Z,2.22
2022-09-21T17:46:46.915Z,1.83
2022-09-21T17:49:31.826Z,2.92
2022-09-21T17:52:24.857Z,1.77
2022-09-21T17:55:17.324Z,2.25
2022-09-21T17:58:24.421Z,2.00
2022-09-21T18:01:30.552Z,2.78
2022-09-21T18:04:06.916Z,2.08
2022-09-21T18:06:41.891Z,2.28
2022-09-21T18:09:14.948Z,2.40
2022-09-21T18:12:34.756Z,2.20
2022-09-21T18:15:31.392Z,2.10
2022-09-21T18:18:34.309Z,2.38
2022-09-21T18:21:21.609Z,3.85
2022-09-21T18:24:14.908Z,2.65
2022-09-21T18:26:55.988Z,3.67
2022-09-21T18:29:42.121Z,4.30
2022-09-21T18:32:58.541Z,3.10
2022-09-21T18:35:40.566Z,2.75
2022-09-21T18:38:32.230Z,2.90
2022-09-21T18:41:24.783Z,2.58
2022-09-21T18:44:23.666Z,2.67
2022-09-21T18:47:19.216Z,2.55
2022-09-21T18:50:23.582Z,5.15
2022-09-21T18:53:24.810Z,5.28
2022-09-21T18:56:12.564Z,4.85
2022-09-21T18:58:45.905Z,5.10
2022-09-21T19:01:22.274Z,3.97
2022-09-21T19:03:56.107Z,5.15
2022-09-21T19:07:02.517Z,3.60
2022-09-21T19:10:11.978Z,3.92
2022-09-21T19:13:32.496Z,3.85
2022-09-21T19:16:55.510Z,3.03
2022-09-21T19:20:29.287Z,3.90
2022-09-21T19:23:57.599Z,3.88
2022-09-21T19:27:40.296Z,3.60
2022-09-21T19:30:25.771Z,3.10
2022-09-21T19:32:58.952Z,3.50
2022-09-21T19:35:47.130Z,3.80
2022-09-21T19:38:24.399Z,3.30
2022-09-21T19:42:00.573Z,3.00
2022-09-21T19:44:53.105Z,3.58
2022-09-21T19:47:48.340Z,3.45
2022-09-21T19:50:47.577Z,3.55
2022-09-21T19:53:44.361Z,4.55
2022-09-21T19:56:58.249Z,4.10
2022-09-21T19:59:51.632Z,3.42
2022-09-21T20:02:32.822Z,4.45
2022-09-21T20:05:21.611Z,4.60
2022-09-21T20:08:06.562Z,5.20
2022-09-21T20:11:00.949Z,7.47
2022-09-21T20:14:23.973Z,9.13
2022-09-21T20:17:25.290Z,6.40
2022-09-21T20:21:05.801Z,7.20
2022-09-21T20:23:43.650Z,9.52
2022-09-21T20:26:26.266Z,8.63
2022-09-21T20:28:59.294Z,6.45
2022-09-21T20:31:32.533Z,5.90
2022-09-21T20:34:05.195Z,5.40
2022-09-21T20:36:37.282Z,5.63
2022-09-21T20:39:10.098Z,4.85
2022-09-21T20:41:42.734Z,5.30
2022-09-21T20:44:15.074Z,8.48
2022-09-21T20:46:47.204Z,5.63
2022-09-21T20:49:19.814Z,6.10
2022-09-21T20:51:52.087Z,5.40
2022-09-21T20:54:25.124Z,8.13
2022-09-21T20:56:57.919Z,7.78
2022-09-21T20:59:29.992Z,7.50
2022-09-21T21:02:02.089Z,6.53
2022-09-21T21:04:34.805Z,7.53
2022-09-21T21:07:07.125Z,5.85
2022-09-21T21:09:39.304Z,5.70
2022-09-21T21:12:11.393Z,4.90
2022-09-21T21:14:45.391Z,4.75
2022-09-21T21:17:18.571Z,9.18
2022-09-21T21:19:50.793Z,3.85
2022-09-21T21:22:23.048Z,5.88
2022-09-21T21:24:55.094Z,4.10
2022-09-21T21:27:28.025Z,5.50
2022-09-21T21:30:00.782Z,4.38
2022-09-21T21:32:33.109Z,4.32
2022-09-21T21:35:06.851Z,4.57
2022-09-21T21:37:40.386Z,4.05
2022-09-21T21:40:12.423Z,4.78
2022-09-21T21:42:44.578Z,5.53
2022-09-21T21:45:18.049Z,4.22
2022-09-21T21:47:53.933Z,5.68
2022-09-21T21:50:26.417Z,5.57
2022-09-21T21:52:58.786Z,4.68
2022-09-21T21:55:30.840Z,4.70
2022-09-21T21:58:02.934Z,6.40
2022-09-21T22:00:34.947Z,5.22
2022-09-21T22:03:06.943Z,6.30
2022-09-21T22:05:39.079Z,6.38
2022-09-21T22:08:12.326Z,5.88
2022-09-21T22:10:50.893Z,4.82
2022-09-21T22:13:23.561Z,6.40
2022-09-21T22:16:04.896Z,5.38
2022-09-21T22:18:40.650Z,5.43
2022-09-21T22:21:16.231Z,5.90
2022-09-21T22:23:55.458Z,5.55
2022-09-21T22:26:35.400Z,5.57
2022-09-21T22:29:14.104Z,5.40
2022-09-21T22:31:49.581Z,7.75
2022-09-21T22:34:22.124Z,5.15
2022-09-21T22:36:56.248Z,5.30
2022-09-21T22:39:29.638Z,5.45
2022-09-21T22:42:03.786Z,5.45
2022-09-21T22:44:35.787Z,7.10
2022-09-21T22:47:07.675Z,5.63
2022-09-21T22:49:39.744Z,6.15
2022-09-21T22:52:11.732Z,7.38
2022-09-21T22:54:43.604Z,6.63
2022-09-21T22:57:15.525Z,11.07
2022-09-21T22:59:47.450Z,6.57
2022-09-21T23:02:19.987Z,5.93
2022-09-21T23:04:51.869Z,5.45
2022-09-21T23:07:23.978Z,6.00
2022-09-21T23:09:55.946Z,5.82
2022-09-21T23:12:27.869Z,5.45
2022-09-21T23:14:59.904Z,4.82
2022-09-21T23:17:31.919Z,5.32
2022-09-21T23:20:04.254Z,6.00
2022-09-21T23:22:36.825Z,6.45
2022-09-21T23:25:09.589Z,6.57
2022-09-21T23:27:41.520Z,9.13
2022-09-21T23:30:13.479Z,8.38
2022-09-21T23:32:45.412Z,11.95
2022-09-21T23:35:17.602Z,8.80
2022-09-21T23:37:49.950Z,7.00
2022-09-21T23:40:22.785Z,6.55
2022-09-21T23:42:54.780Z,5.88
2022-09-21T23:45:26.712Z,7.18
2022-09-21T23:47:58.653Z,5.55
2022-09-21T23:50:30.642Z,5.47
2022-09-21T23:53:03.276Z,5.95
2022-09-21T23:55:35.145Z,5.78
2022-09-21T23:58:07.010Z,6.28
